createdAt,value
2018-06-12T00:01:33.414Z,23.06
2018-06-12T00:04:00.278Z,23.03
2018-06-12T00:06:26.974Z,23.00
2018-06-12T00:08:53.643Z,23.00
2018-06-12T00:11:20.272Z,22.96
2018-06-12T00:13:46.900Z,22.95
2018-06-12T00:16:13.563Z,22.96
2018-06-12T00:18:40.189Z,22.97
2018-06-12T00:21:07.812Z,23.01
2018-06-12T00:23:34.487Z,22.96
2018-06-12T00:26:01.160Z,23.01
2018-06-12T00:28:27.823Z,22.96
2018-06-12T00:30:54.484Z,22.94
2018-06-12T00:33:21.105Z,22.93
2018-06-12T00:35:47.729Z,22.97
2018-06-12T00:38:14.352Z,22.97
2018-06-12T00:40:40.977Z,22.98
2018-06-12T00:43:07.605Z,22.97
2018-06-12T00:45:34.268Z,22.92
2018-06-12T00:48:00.892Z,22.91
2018-06-12T00:50:27.524Z,22.94
2018-06-12T00:52:54.195Z,22.94
2018-06-12T00:55:20.860Z,22.96
2018-06-12T00:57:47.476Z,22.92
2018-06-12T01:00:14.144Z,22.90
2018-06-12T01:02:40.770Z,22.87
2018-06-12T01:05:07.452Z,22.89
2018-06-12T01:07:34.064Z,22.86
2018-06-12T01:10:01.616Z,22.86
2018-06-12T01:12:28.231Z,22.86
2018-06-12T01:14:54.896Z,22.84
2018-06-12T01:17:21.504Z,22.86
2018-06-12T01:19:49.144Z,22.87
2018-06-12T01:22:16.532Z,22.83
2018-06-12T01:24:43.149Z,22.86
2018-06-12T01:27:09.769Z,22.84
2018-06-12T01:29:36.395Z,22.86
2018-06-12T01:32:04.449Z,22.85
2018-06-12T01:34:31.060Z,22.86
2018-06-12T01:36:58.641Z,22.87
2018-06-12T01:39:25.263Z,22.82
2018-06-12T01:41:52.780Z,22.84
2018-06-12T01:44:20.211Z,22.88
2018-06-12T01:46:46.819Z,22.82
2018-06-12T01:49:13.432Z,22.84
2018-06-12T01:51:40.097Z,22.83
2018-06-12T01:54:06.724Z,22.82
2018-06-12T01:56:33.343Z,22.74
2018-06-12T01:58:59.961Z,22.70
2018-06-12T02:01:26.571Z,22.69
2018-06-12T02:03:53.194Z,22.72
2018-06-12T02:06:19.975Z,22.70
2018-06-12T02:08:46.584Z,22.68
2018-06-12T02:11:13.206Z,22.77
2018-06-12T02:13:39.824Z,22.72
2018-06-12T02:16:07.320Z,22.72
2018-06-12T02:18:33.976Z,22.79
2018-06-12T02:21:00.594Z,22.71
2018-06-12T02:23:27.248Z,22.67
2018-06-12T02:25:54.894Z,22.64
2018-06-12T02:28:22.458Z,22.67
2018-06-12T02:30:49.696Z,22.62
2018-06-12T02:33:17.264Z,22.64
2018-06-12T02:35:44.867Z,22.63
2018-06-12T02:38:11.488Z,22.66
2018-06-12T02:40:38.141Z,22.65
2018-06-12T02:43:05.684Z,22.67
2018-06-12T02:45:33.367Z,22.66
2018-06-12T02:48:00.928Z,22.61
2018-06-12T02:50:27.605Z,22.64
2018-06-12T02:52:54.214Z,22.60
2018-06-12T02:55:20.879Z,22.58
2018-06-12T02:57:47.548Z,22.61
2018-06-12T03:00:14.178Z,22.61
2018-06-12T03:02:40.831Z,22.64
2018-06-12T03:05:07.474Z,22.64
2018-06-12T03:07:34.134Z,22.60
2018-06-12T03:10:00.756Z,22.58
2018-06-12T03:12:28.340Z,22.56
2018-06-12T03:14:55.947Z,22.53
2018-06-12T03:17:23.612Z,22.56
2018-06-12T03:19:51.217Z,22.66
2018-06-12T03:22:17.823Z,22.58
2018-06-12T03:24:44.423Z,22.54
2018-06-12T03:27:11.076Z,22.60
2018-06-12T03:29:37.752Z,22.63
2018-06-12T03:32:04.396Z,22.66
2018-06-12T03:34:31.015Z,22.61
2018-06-12T03:36:57.681Z,22.62
2018-06-12T03:39:25.131Z,22.69
2018-06-12T03:41:51.748Z,22.64
2018-06-12T03:44:18.401Z,22.70
2018-06-12T03:46:45.057Z,22.65
2018-06-12T03:49:11.685Z,22.63
2018-06-12T03:51:38.352Z,22.68
2018-06-12T03:54:04.976Z,22.72
2018-06-12T03:56:32.440Z,22.68
2018-06-12T03:58:59.856Z,22.74
2018-06-12T04:01:27.367Z,22.65
2018-06-12T04:03:53.984Z,22.65
2018-06-12T04:06:20.739Z,22.65
2018-06-12T04:08:47.396Z,22.64
2018-06-12T04:11:14.046Z,22.69
2018-06-12T04:13:40.676Z,22.66
2018-06-12T04:16:07.305Z,22.71
2018-06-12T04:18:33.940Z,22.72
2018-06-12T04:21:00.566Z,22.73
2018-06-12T04:23:27.180Z,22.79
2018-06-12T04:25:53.896Z,22.69
2018-06-12T04:28:20.520Z,22.68
2018-06-12T04:30:47.149Z,22.70
2018-06-12T04:33:13.763Z,22.74
2018-06-12T04:35:40.424Z,22.66
2018-06-12T04:38:07.048Z,22.63
2018-06-12T04:40:33.745Z,22.67
2018-06-12T04:43:00.407Z,22.65
2018-06-12T04:45:27.024Z,22.65
2018-06-12T04:47:53.640Z,22.74
2018-06-12T04:50:20.258Z,22.66
2018-06-12T04:52:46.926Z,22.64
2018-06-12T04:55:14.359Z,22.63
2018-06-12T04:57:41.924Z,22.64
2018-06-12T05:00:08.541Z,22.73
2018-06-12T05:02:36.017Z,22.70
2018-06-12T05:05:02.627Z,22.67
2018-06-12T05:07:29.253Z,22.70
2018-06-12T05:09:55.864Z,22.69
2018-06-12T05:12:22.495Z,22.65
2018-06-12T05:14:49.120Z,22.64
2018-06-12T05:17:15.740Z,22.61
2018-06-12T05:19:42.423Z,22.60
2018-06-12T05:22:09.941Z,22.66
2018-06-12T05:24:36.555Z,22.66
2018-06-12T05:27:03.169Z,22.65
2018-06-12T05:29:29.800Z,22.61
2018-06-12T05:31:57.316Z,22.59
2018-06-12T05:34:24.939Z,22.64
2018-06-12T05:36:51.596Z,22.66
2018-06-12T05:39:19.008Z,22.58
2018-06-12T05:41:45.633Z,22.55
2018-06-12T05:44:13.272Z,22.54
2018-06-12T05:46:40.009Z,22.58
2018-06-12T05:49:07.523Z,22.60
2018-06-12T05:51:34.181Z,22.67
2018-06-12T05:54:01.828Z,22.62
2018-06-12T05:56:28.452Z,22.64
2018-06-12T05:58:55.110Z,22.55
2018-06-12T06:01:22.646Z,22.58
2018-06-12T06:03:50.111Z,22.60
2018-06-12T06:06:17.544Z,22.60
2018-06-12T06:08:44.201Z,22.63
2018-06-12T06:11:11.752Z,22.61
2018-06-12T06:13:38.380Z,22.64
2018-06-12T06:16:04.992Z,22.69
2018-06-12T06:18:32.283Z,22.62
2018-06-12T06:20:58.903Z,22.62
2018-06-12T06:23:26.445Z,22.66
2018-06-12T06:25:54.012Z,22.59
2018-06-12T06:28:21.628Z,22.65
2018-06-12T06:30:48.396Z,22.64
2018-06-12T06:33:16.059Z,22.66
2018-06-12T06:35:42.724Z,22.64
2018-06-12T06:38:09.344Z,22.76
2018-06-12T06:40:36.998Z,22.83
2018-06-12T06:43:04.557Z,22.88
2018-06-12T06:45:31.224Z,22.98
2018-06-12T06:47:58.828Z,23.09
2018-06-12T06:50:25.487Z,23.12
2018-06-12T06:52:52.139Z,23.19
2018-06-12T06:55:18.797Z,23.18
2018-06-12T06:57:46.336Z,23.19
2018-06-12T07:00:13.012Z,23.24
2018-06-12T07:02:40.580Z,23.24
2018-06-12T07:05:07.247Z,23.22
2018-06-12T07:07:33.908Z,23.23
2018-06-12T07:10:01.548Z,23.20
2018-06-12T07:12:28.173Z,23.22
2018-06-12T07:14:55.815Z,23.26
2018-06-12T07:17:23.399Z,23.25
2018-06-12T07:19:51.036Z,23.25
2018-06-12T07:22:18.669Z,23.22
2018-06-12T07:24:46.224Z,23.22
2018-06-12T07:27:12.879Z,23.18
2018-06-12T07:29:39.496Z,23.16
2018-06-12T07:32:06.156Z,23.16
2018-06-12T07:34:33.809Z,23.09
2018-06-12T07:37:01.284Z,23.11
2018-06-12T07:39:27.895Z,23.15
2018-06-12T07:41:55.428Z,23.08
2018-06-12T07:44:22.056Z,23.09
2018-06-12T07:46:48.718Z,23.12
2018-06-12T07:49:15.336Z,23.12
2018-06-12T07:51:42.933Z,23.08
2018-06-12T07:54:09.584Z,23.08
2018-06-12T07:56:41.937Z,23.04
2018-06-12T07:59:08.720Z,23.07
2018-06-12T08:01:35.335Z,22.93
2018-06-12T08:04:01.996Z,23.11
2018-06-12T08:06:28.639Z,23.10
2018-06-12T08:08:55.304Z,23.10
2018-06-12T08:11:22.871Z,23.04
2018-06-12T08:13:49.500Z,23.04
2018-06-12T08:16:16.119Z,23.07
2018-06-12T08:18:42.733Z,23.01
2018-06-12T08:21:10.397Z,22.95
2018-06-12T08:23:37.851Z,23.02
2018-06-12T08:26:04.472Z,23.06
2018-06-12T08:28:31.147Z,23.06
2018-06-12T08:30:57.836Z,22.98
2018-06-12T08:33:24.522Z,23.08
2018-06-12T08:35:51.196Z,23.02
2018-06-12T08:38:17.827Z,23.04
2018-06-12T08:40:45.436Z,22.94
2018-06-12T08:43:12.052Z,22.87
2018-06-12T08:45:38.673Z,22.93
2018-06-12T08:48:06.464Z,22.97
2018-06-12T08:50:34.161Z,22.97
2018-06-12T08:53:00.811Z,22.98
2018-06-12T08:55:27.434Z,22.92
2018-06-12T08:57:54.051Z,22.92
2018-06-12T09:00:20.675Z,23.00
2018-06-12T09:02:47.311Z,22.98
2018-06-12T09:05:13.996Z,22.94
2018-06-12T09:07:41.427Z,22.88
2018-06-12T09:10:08.869Z,22.82
2018-06-12T09:12:35.538Z,22.91
2018-06-12T09:15:02.222Z,22.94
2018-06-12T09:17:28.840Z,22.99
2018-06-12T09:19:56.490Z,22.92
2018-06-12T09:22:24.121Z,22.85
2018-06-12T09:24:50.736Z,22.94
2018-06-12T09:27:17.355Z,22.98
2018-06-12T09:29:44.907Z,22.85
2018-06-12T09:32:11.583Z,22.86
2018-06-12T09:34:39.180Z,22.92
2018-06-12T09:37:05.800Z,22.99
2018-06-12T09:39:33.411Z,22.96
2018-06-12T09:42:00.044Z,22.87
2018-06-12T09:44:26.784Z,22.92
2018-06-12T09:46:53.483Z,23.01
2018-06-12T09:49:20.293Z,23.05
2018-06-12T09:51:46.964Z,22.98
2018-06-12T09:54:14.415Z,22.93
2018-06-12T09:56:41.881Z,22.92
2018-06-12T09:59:08.503Z,22.90
2018-06-12T10:01:35.956Z,22.87
2018-06-12T10:04:02.605Z,22.89
2018-06-12T10:06:29.268Z,22.90
2018-06-12T10:08:56.604Z,22.88
2018-06-12T10:11:23.263Z,22.86
2018-06-12T10:13:49.927Z,22.93
2018-06-12T10:16:16.595Z,22.97
2018-06-12T10:18:43.217Z,22.87
2018-06-12T10:21:09.905Z,22.95
2018-06-12T10:23:36.560Z,22.92
2018-06-12T10:26:03.176Z,22.90
2018-06-12T10:28:29.868Z,22.97
2018-06-12T10:30:56.600Z,22.91
2018-06-12T10:33:23.252Z,22.96
2018-06-12T10:35:49.879Z,22.94
2018-06-12T10:38:16.544Z,22.90
2018-06-12T10:40:43.156Z,22.91
2018-06-12T10:43:10.098Z,22.82
2018-06-12T10:45:37.448Z,22.87
2018-06-12T10:48:05.025Z,22.91
2018-06-12T10:50:32.649Z,22.88
2018-06-12T10:52:59.311Z,22.85
2018-06-12T10:55:26.945Z,22.82
2018-06-12T10:57:53.659Z,22.89
2018-06-12T11:00:20.283Z,22.79
2018-06-12T11:02:46.967Z,22.87
2018-06-12T11:05:14.551Z,22.91
2018-06-12T11:07:41.171Z,22.87
2018-06-12T11:10:08.758Z,22.86
2018-06-12T11:12:35.413Z,22.92
2018-06-12T11:15:02.726Z,22.91
2018-06-12T11:17:30.157Z,22.90
2018-06-12T11:19:56.785Z,22.84
2018-06-12T11:22:24.444Z,22.82
2018-06-12T11:24:51.059Z,22.86
2018-06-12T11:27:18.664Z,22.89
2018-06-12T11:29:45.296Z,22.79
2018-06-12T11:32:12.921Z,22.86
2018-06-12T11:34:39.544Z,22.88
2018-06-12T11:37:06.197Z,22.88
2018-06-12T11:39:32.820Z,22.74
2018-06-12T11:42:00.436Z,22.92
2018-06-12T11:44:28.033Z,22.87
2018-06-12T11:46:54.699Z,22.85
2018-06-12T11:49:21.324Z,22.80
2018-06-12T11:51:48.104Z,22.80
2018-06-12T11:54:14.739Z,22.86
2018-06-12T11:56:41.352Z,22.87
2018-06-12T11:59:07.968Z,22.84
2018-06-12T12:01:35.360Z,22.84
2018-06-12T12:04:01.985Z,22.87
2018-06-12T12:06:28.596Z,22.80
2018-06-12T12:08:56.297Z,22.87
2018-06-12T12:11:22.917Z,22.87
2018-06-12T12:13:49.528Z,22.82
2018-06-12T12:16:16.143Z,22.84
2018-06-12T12:18:42.753Z,22.86
2018-06-12T12:21:09.371Z,22.89
2018-06-12T12:23:35.992Z,22.89
2018-06-12T12:26:03.573Z,22.85
2018-06-12T12:28:31.169Z,22.80
2018-06-12T12:30:58.810Z,22.88
2018-06-12T12:33:26.427Z,22.88
2018-06-12T12:35:54.009Z,22.85
2018-06-12T12:38:20.709Z,22.89
2018-06-12T12:40:47.371Z,22.79
2018-06-12T12:43:14.830Z,22.78
2018-06-12T12:45:41.440Z,22.83
2018-06-12T12:48:08.664Z,22.81
2018-06-12T12:50:35.269Z,22.81
2018-06-12T12:53:02.910Z,22.83
2018-06-12T12:55:29.509Z,22.82
2018-06-12T12:57:56.961Z,22.86
2018-06-12T13:00:23.608Z,22.88
2018-06-12T13:02:51.268Z,22.78
2018-06-12T13:05:17.880Z,22.78
2018-06-12T13:07:45.486Z,22.85
2018-06-12T13:10:12.098Z,22.82
2018-06-12T13:12:39.681Z,22.80
2018-06-12T13:15:07.282Z,22.82
2018-06-12T13:17:33.945Z,22.75
2018-06-12T13:20:01.484Z,22.76
2018-06-12T13:22:28.100Z,22.73
2018-06-12T13:24:55.620Z,22.83
2018-06-12T13:27:22.240Z,22.82
2018-06-12T13:29:49.656Z,22.79
2018-06-12T13:32:16.308Z,22.80
2018-06-12T13:34:43.918Z,22.81
2018-06-12T13:37:10.527Z,22.76
2018-06-12T13:39:38.052Z,22.82
2018-06-12T13:42:04.728Z,22.82
2018-06-12T13:44:31.344Z,22.75
2018-06-12T13:46:58.804Z,22.75
2018-06-12T13:49:26.316Z,22.73
2018-06-12T13:51:53.873Z,22.79
2018-06-12T13:54:21.433Z,22.79
2018-06-12T13:56:48.052Z,22.79
2018-06-12T13:59:15.656Z,22.82
2018-06-12T14:01:42.266Z,22.83
2018-06-12T14:04:09.826Z,22.84
2018-06-12T14:06:36.441Z,22.85
2018-06-12T14:09:05.284Z,22.85
2018-06-12T14:11:31.962Z,22.83
2018-06-12T14:13:59.354Z,22.81
2018-06-12T14:16:25.968Z,22.82
2018-06-12T14:18:53.513Z,22.81
2018-06-12T14:21:20.972Z,22.82
2018-06-12T14:23:48.576Z,22.77
2018-06-12T14:26:16.203Z,22.82
2018-06-12T14:28:43.408Z,22.77
2018-06-12T14:31:11.040Z,22.82
2018-06-12T14:33:38.589Z,22.79
2018-06-12T14:36:05.251Z,22.73
2018-06-12T14:38:32.279Z,22.77
2018-06-12T14:40:59.897Z,22.78
2018-06-12T14:43:27.518Z,22.78
2018-06-12T14:45:55.152Z,22.80
2018-06-12T14:48:21.769Z,22.81
2018-06-12T14:50:48.433Z,22.85
2018-06-12T14:53:15.980Z,22.82
2018-06-12T14:55:42.641Z,22.86
2018-06-12T14:58:09.254Z,22.86
2018-06-12T15:00:35.872Z,22.90
2018-06-12T15:03:03.392Z,22.84
2018-06-12T15:05:30.012Z,22.84
2018-06-12T15:07:57.500Z,22.85
2018-06-12T15:10:24.120Z,22.85
2018-06-12T15:12:50.745Z,22.73
2018-06-12T15:15:18.152Z,22.74
2018-06-12T15:17:44.766Z,22.75
2018-06-12T15:20:11.379Z,22.83
2018-06-12T15:22:38.004Z,22.79
2018-06-12T15:25:04.628Z,22.82
2018-06-12T15:27:32.127Z,22.71
2018-06-12T15:29:58.751Z,22.70
2018-06-12T15:32:25.376Z,22.72
2018-06-12T15:34:51.992Z,22.78
2018-06-12T15:37:18.620Z,22.76
2018-06-12T15:39:45.272Z,22.70
2018-06-12T15:42:11.893Z,22.79
2018-06-12T15:44:38.549Z,22.78
2018-06-12T15:47:05.173Z,22.74
2018-06-12T15:49:31.797Z,22.73
2018-06-12T15:51:58.412Z,22.70
2018-06-12T15:54:25.036Z,22.73
2018-06-12T15:56:51.656Z,22.75
2018-06-12T15:59:18.287Z,22.71
2018-06-12T16:01:45.817Z,22.68
2018-06-12T16:04:13.467Z,22.67
2018-06-12T16:06:41.092Z,22.73
2018-06-12T16:09:08.691Z,22.65
2018-06-12T16:11:36.292Z,22.68
2018-06-12T16:14:03.812Z,22.67
2018-06-12T16:16:31.421Z,22.62
2018-06-12T16:18:58.075Z,22.67
2018-06-12T16:21:25.474Z,22.72
2018-06-12T16:23:52.118Z,22.73
2018-06-12T16:26:19.698Z,22.68
2018-06-12T16:28:46.532Z,22.71
2018-06-12T16:31:14.040Z,22.67
2018-06-12T16:33:40.776Z,22.70
2018-06-12T16:36:08.370Z,22.66
2018-06-12T16:38:35.012Z,22.73
2018-06-12T16:41:02.591Z,22.73
2018-06-12T16:43:29.245Z,22.72
2018-06-12T16:45:55.856Z,22.65
2018-06-12T16:48:22.547Z,22.63
2018-06-12T16:50:50.104Z,22.76
2018-06-12T16:53:16.764Z,22.72
2018-06-12T16:55:44.397Z,22.65
2018-06-12T16:58:11.011Z,22.64
2018-06-12T17:03:24.384Z,22.53
2018-06-12T17:05:51.008Z,22.62
2018-06-12T17:08:17.677Z,22.68
2018-06-12T17:10:44.336Z,22.72
2018-06-12T17:13:10.963Z,22.72
2018-06-12T17:15:37.633Z,22.69
2018-06-12T17:18:04.276Z,22.71
2018-06-12T17:20:31.851Z,22.73
2018-06-12T17:22:58.510Z,22.71
2018-06-12T17:25:25.173Z,22.67
2018-06-12T17:27:51.792Z,22.68
2018-06-12T17:30:18.445Z,22.70
2018-06-12T17:32:45.148Z,22.69
2018-06-12T17:35:11.817Z,22.68
2018-06-12T17:37:38.432Z,22.69
2018-06-12T17:40:05.947Z,22.73
2018-06-12T17:42:32.568Z,22.67
2018-06-12T17:44:59.188Z,22.73
2018-06-12T17:47:25.840Z,22.72
2018-06-12T17:49:52.449Z,22.69
2018-06-12T17:52:19.843Z,22.72
2018-06-12T17:54:46.478Z,22.71
2018-06-12T17:57:14.094Z,22.70
2018-06-12T17:59:42.272Z,22.77
2018-06-12T18:02:10.050Z,22.70
2018-06-12T18:04:38.055Z,22.73
2018-06-12T18:07:05.021Z,22.71
2018-06-12T18:09:32.868Z,22.71
2018-06-12T18:12:01.091Z,22.74
2018-06-12T18:14:28.488Z,22.75
2018-06-12T18:16:56.613Z,22.70
2018-06-12T18:19:23.863Z,22.71
2018-06-12T18:21:50.499Z,22.72
2018-06-12T18:24:17.793Z,22.72
2018-06-12T18:26:45.383Z,22.73
2018-06-12T18:29:12.497Z,22.73
2018-06-12T18:34:34.753Z,22.74
2018-06-12T18:37:01.473Z,22.75
2018-06-12T18:39:28.112Z,22.74
2018-06-12T18:41:55.684Z,22.74
2018-06-12T18:44:22.302Z,22.73
2018-06-12T18:46:48.926Z,22.72
2018-06-12T18:49:15.711Z,22.74
2018-06-12T18:51:42.554Z,22.73
2018-06-12T18:54:09.475Z,22.72
2018-06-12T18:56:37.399Z,22.72
2018-06-12T19:04:54.913Z,22.48
2018-06-12T19:07:22.251Z,22.40
2018-06-12T19:09:49.226Z,22.35
2018-06-12T19:12:16.883Z,22.32
2018-06-12T19:14:43.719Z,22.28
2018-06-12T19:17:10.468Z,22.32
2018-06-12T19:19:37.225Z,22.32
2018-06-12T19:22:03.954Z,22.28
2018-06-12T19:28:01.528Z,22.26
2018-06-12T19:30:28.261Z,21.76
2018-06-12T19:32:54.937Z,21.87
2018-06-12T19:35:21.903Z,21.89
2018-06-12T19:37:48.680Z,21.98
2018-06-12T19:40:15.411Z,22.05
2018-06-12T19:42:42.053Z,22.17
2018-06-12T19:45:12.518Z,22.12
2018-06-12T19:47:39.337Z,22.13
2018-06-12T19:50:06.105Z,22.16
2018-06-12T19:52:33.228Z,22.21
2018-06-12T19:54:59.878Z,22.12
2018-06-12T19:57:26.552Z,22.18
2018-06-12T19:59:53.212Z,22.11
2018-06-12T20:02:19.873Z,22.06
2018-06-12T20:04:46.497Z,22.03
2018-06-12T20:07:13.160Z,22.09
2018-06-12T20:09:39.832Z,22.07
2018-06-12T20:12:06.492Z,21.97
2018-06-12T20:14:33.140Z,21.95
2018-06-12T20:16:59.772Z,21.82
2018-06-12T20:19:26.436Z,21.86
2018-06-12T20:21:53.052Z,21.82
2018-06-12T20:24:20.201Z,21.90
2018-06-12T20:26:46.880Z,21.72
2018-06-12T20:29:13.492Z,21.80
2018-06-12T20:31:40.106Z,21.77
2018-06-12T20:34:06.723Z,21.82
2018-06-12T20:36:33.348Z,21.85
2018-06-12T20:38:59.977Z,21.89
2018-06-12T20:41:26.599Z,21.94
2018-06-12T20:43:53.245Z,21.99
2018-06-12T20:46:19.944Z,21.94
2018-06-12T20:48:46.559Z,21.97
2018-06-12T20:51:13.178Z,22.03
2018-06-12T20:53:39.784Z,22.05
2018-06-12T20:56:06.429Z,21.95
2018-06-12T20:58:33.122Z,22.00
2018-06-12T21:00:59.737Z,22.00
2018-06-12T21:03:26.388Z,22.05
2018-06-12T21:05:53.052Z,21.97
2018-06-12T21:08:19.817Z,21.95
2018-06-12T21:10:46.545Z,22.11
2018-06-12T21:13:13.364Z,22.08
2018-06-12T21:15:40.112Z,22.00
2018-06-12T21:18:11.085Z,22.05
2018-06-12T21:20:37.804Z,22.07
2018-06-12T21:23:04.583Z,22.05
2018-06-12T21:25:31.248Z,22.02
2018-06-12T21:28:03.037Z,22.03
2018-06-12T21:30:29.725Z,22.10
2018-06-12T21:32:56.340Z,22.30
2018-06-12T21:35:23.040Z,22.36
2018-06-12T21:37:49.695Z,22.43
2018-06-12T21:40:16.313Z,22.45
2018-06-12T21:42:42.941Z,22.48
2018-06-12T21:45:09.560Z,22.47
2018-06-12T21:47:36.200Z,22.51
2018-06-12T21:50:02.814Z,22.49
2018-06-12T21:52:29.521Z,22.47
2018-06-12T21:54:57.084Z,22.46
2018-06-12T21:57:23.716Z,22.48
2018-06-12T21:59:50.476Z,22.45
2018-06-12T22:02:17.158Z,22.44
2018-06-12T22:04:43.843Z,22.50
2018-06-12T22:07:10.517Z,22.43
2018-06-12T22:09:37.177Z,22.46
2018-06-12T22:12:03.799Z,22.45
2018-06-12T22:14:30.494Z,22.42
2018-06-12T22:16:57.124Z,22.48
2018-06-12T22:19:23.963Z,22.40
2018-06-12T22:21:50.583Z,22.46
2018-06-12T22:24:17.244Z,22.45
2018-06-12T22:26:43.856Z,22.46
2018-06-12T22:29:18.039Z,22.49
2018-06-12T22:31:44.649Z,22.47
2018-06-12T22:34:11.278Z,22.49
2018-06-12T22:36:37.955Z,22.48
2018-06-12T22:39:06.247Z,22.45
2018-06-12T22:41:33.780Z,22.45
2018-06-12T22:44:00.400Z,22.44
2018-06-12T22:46:27.208Z,22.43
2018-06-12T22:48:54.184Z,22.44
2018-06-12T22:51:20.885Z,22.40
2018-06-12T22:53:47.505Z,22.47
2018-06-12T22:56:14.184Z,22.46
2018-06-12T22:58:40.860Z,22.43
2018-06-12T23:01:07.498Z,22.44
2018-06-12T23:03:34.116Z,22.42
2018-06-12T23:06:00.744Z,22.44
2018-06-12T23:08:28.254Z,22.45
2018-06-12T23:10:54.888Z,22.48
2018-06-12T23:13:21.528Z,22.51
2018-06-12T23:15:48.189Z,22.52
2018-06-12T23:18:14.919Z,22.51
2018-06-12T23:20:47.253Z,22.44
2018-06-12T23:23:13.912Z,22.37
2018-06-12T23:25:40.536Z,22.39
2018-06-12T23:28:07.162Z,22.45
2018-06-12T23:30:33.781Z,22.48
2018-06-12T23:33:00.433Z,22.42
2018-06-12T23:35:27.088Z,22.40
2018-06-12T23:37:54.000Z,22.40
2018-06-12T23:40:20.653Z,22.41
2018-06-12T23:42:47.308Z,22.42
2018-06-12T23:45:13.975Z,22.45
2018-06-12T23:47:40.597Z,22.43
2018-06-12T23:50:07.212Z,22.44
2018-06-12T23:52:33.829Z,22.38
2018-06-12T23:55:00.500Z,22.38
2018-06-12T23:57:27.168Z,22.35
2018-06-12T23:59:53.828Z,22.40
